createdAt,value
2022-12-29T00:00:21.328Z,94600.06
2022-12-29T00:02:48.068Z,94618.53
2022-12-29T00:05:15.441Z,94615.25
2022-12-29T00:07:42.251Z,94602.06
2022-12-29T00:10:09.248Z,94600.91
2022-12-29T00:12:54.631Z,94603.28
2022-12-29T00:15:40.745Z,94591.41
2022-12-29T00:18:08.864Z,94595.16
2022-12-29T00:20:56.505Z,94578.50
2022-12-29T00:23:42.403Z,94589.16
2022-12-29T00:26:34.794Z,94590.56
2022-12-29T00:29:20.002Z,94571.53
2022-12-29T00:32:06.396Z,94579.31
2022-12-29T00:34:52.950Z,94580.53
2022-12-29T00:37:39.644Z,94583.88
2022-12-29T00:40:25.530Z,94575.91
2022-12-29T00:43:11.515Z,94578.97
2022-12-29T00:45:41.692Z,94592.66
2022-12-29T00:48:08.400Z,94566.56
2022-12-29T00:50:35.095Z,94564.91
2022-12-29T00:53:01.855Z,94578.88
2022-12-29T00:55:28.567Z,94554.19
2022-12-29T00:57:55.619Z,94576.22
2022-12-29T01:00:23.156Z,94570.91
2022-12-29T01:02:50.111Z,94585.25
2022-12-29T01:05:17.275Z,94592.25
2022-12-29T01:07:46.211Z,94571.69
2022-12-29T01:10:12.987Z,94569.94
2022-12-29T01:12:42.685Z,94572.13
2022-12-29T01:15:12.771Z,94581.69
2022-12-29T01:17:39.561Z,94569.28
2022-12-29T01:20:07.081Z,94566.47
2022-12-29T01:22:34.083Z,94558.59
2022-12-29T01:25:01.141Z,94561.88
2022-12-29T01:27:28.264Z,94578.25
2022-12-29T01:29:55.080Z,94588.34
2022-12-29T01:32:22.097Z,94598.09
2022-12-29T01:34:48.777Z,94589.50
2022-12-29T01:37:15.524Z,94566.44
2022-12-29T01:39:42.405Z,94590.19
2022-12-29T01:42:20.495Z,94563.72
2022-12-29T01:44:53.467Z,94572.81
2022-12-29T01:47:43.271Z,94573.53
2022-12-29T01:50:19.767Z,94579.13
2022-12-29T01:53:01.260Z,94580.34
2022-12-29T01:55:32.377Z,94570.66
2022-12-29T01:58:02.437Z,94571.94
2022-12-29T02:00:31.259Z,94566.41
2022-12-29T02:02:58.050Z,94553.78
2022-12-29T02:05:37.501Z,94535.00
2022-12-29T02:08:04.937Z,94562.53
2022-12-29T02:10:36.135Z,94569.34
2022-12-29T02:13:03.535Z,94576.84
2022-12-29T02:16:09.471Z,94554.41
2022-12-29T02:18:41.301Z,94564.50
2022-12-29T02:21:20.865Z,94588.81
2022-12-29T02:24:05.888Z,94577.94
2022-12-29T02:27:07.523Z,94540.75
2022-12-29T02:29:40.232Z,94545.75
2022-12-29T02:32:17.686Z,94552.19
2022-12-29T02:35:04.943Z,94553.22
2022-12-29T02:37:50.189Z,94565.91
2022-12-29T02:40:47.197Z,94553.47
2022-12-29T02:43:32.677Z,94552.00
2022-12-29T02:46:22.905Z,94544.78
2022-12-29T02:49:00.485Z,94568.84
2022-12-29T02:52:08.866Z,94552.56
2022-12-29T02:54:42.741Z,94520.34
2022-12-29T02:57:22.824Z,94534.63
2022-12-29T03:00:06.032Z,94550.81
2022-12-29T03:02:45.356Z,94546.53
2022-12-29T03:05:29.456Z,94559.25
2022-12-29T03:08:29.584Z,94532.91
2022-12-29T03:11:01.578Z,94524.94
2022-12-29T03:14:03.192Z,94526.41
2022-12-29T03:16:44.420Z,94554.25
2022-12-29T03:19:19.163Z,94512.47
2022-12-29T03:22:14.163Z,94524.34
2022-12-29T03:24:48.783Z,94488.13
2022-12-29T03:27:24.293Z,94511.44
2022-12-29T03:29:55.256Z,94519.84
2022-12-29T03:32:27.752Z,94521.81
2022-12-29T03:34:56.067Z,94534.47
2022-12-29T03:37:27.574Z,94524.66
2022-12-29T03:39:54.595Z,94534.25
2022-12-29T03:42:24.889Z,94517.97
2022-12-29T03:44:56.334Z,94521.91
2022-12-29T03:47:25.243Z,94539.13
2022-12-29T03:49:53.298Z,94539.94
2022-12-29T03:52:20.432Z,94550.56
2022-12-29T03:54:48.243Z,94532.72
2022-12-29T03:57:15.043Z,94539.00
2022-12-29T03:59:52.276Z,94535.69
2022-12-29T04:02:20.074Z,94523.38
2022-12-29T04:04:47.727Z,94535.22
2022-12-29T04:07:14.466Z,94507.47
2022-12-29T04:09:42.474Z,94522.16
2022-12-29T04:12:12.548Z,94502.75
2022-12-29T04:14:40.015Z,94509.16
2022-12-29T04:17:07.238Z,94504.19
2022-12-29T04:19:34.900Z,94523.75
2022-12-29T04:22:01.908Z,94537.13
2022-12-29T04:24:29.011Z,94515.63
2022-12-29T04:26:55.840Z,94504.72
2022-12-29T04:29:42.350Z,94512.22
2022-12-29T04:32:29.454Z,94527.72
2022-12-29T04:34:56.755Z,94531.56
2022-12-29T04:37:23.870Z,94517.69
2022-12-29T04:39:50.656Z,94535.94
2022-12-29T04:42:17.932Z,94536.63
2022-12-29T04:44:45.659Z,94518.03
2022-12-29T04:47:18.297Z,94511.22
2022-12-29T04:49:58.361Z,94481.63
2022-12-29T04:52:37.847Z,94503.88
2022-12-29T04:55:06.936Z,94506.00
2022-12-29T04:57:34.589Z,94496.31
2022-12-29T05:00:02.478Z,94492.78
2022-12-29T05:02:29.429Z,94520.53
2022-12-29T05:04:57.250Z,94520.06
2022-12-29T05:07:26.078Z,94524.66
2022-12-29T05:09:54.153Z,94503.06
2022-12-29T05:12:21.013Z,94504.34
2022-12-29T05:14:58.873Z,94504.56
2022-12-29T05:17:25.740Z,94505.34
2022-12-29T05:19:54.229Z,94516.88
2022-12-29T05:22:22.767Z,94502.81
2022-12-29T05:24:50.476Z,94515.81
2022-12-29T05:27:17.481Z,94515.44
2022-12-29T05:30:02.599Z,94519.88
2022-12-29T05:32:29.665Z,94519.19
2022-12-29T05:34:57.328Z,94499.56
2022-12-29T05:37:25.625Z,94509.47
2022-12-29T05:39:52.363Z,94526.97
2022-12-29T05:42:19.248Z,94517.28
2022-12-29T05:45:10.625Z,94516.09
2022-12-29T05:47:50.902Z,94505.03
2022-12-29T05:50:43.917Z,94494.84
2022-12-29T05:53:14.419Z,94535.81
2022-12-29T05:55:46.956Z,94519.91
2022-12-29T05:58:17.219Z,94529.28
2022-12-29T06:00:45.126Z,94524.75
2022-12-29T06:03:12.508Z,94542.56
2022-12-29T06:05:39.658Z,94541.88
2022-12-29T06:08:06.818Z,94538.72
2022-12-29T06:10:34.570Z,94508.00
2022-12-29T06:13:07.249Z,94537.88
2022-12-29T06:15:37.292Z,94523.50
2022-12-29T06:18:06.800Z,94507.22
2022-12-29T06:20:34.672Z,94519.66
2022-12-29T06:23:04.811Z,94519.41
2022-12-29T06:25:33.309Z,94509.09
2022-12-29T06:28:00.860Z,94528.00
2022-12-29T06:30:27.650Z,94528.53
2022-12-29T06:32:55.956Z,94521.84
2022-12-29T06:35:24.979Z,94503.81
2022-12-29T06:37:52.398Z,94507.63
2022-12-29T06:40:20.211Z,94509.50
2022-12-29T06:43:16.143Z,94531.88
2022-12-29T06:46:00.680Z,94533.88
2022-12-29T06:48:27.378Z,94517.97
2022-12-29T06:50:55.069Z,94521.16
2022-12-29T06:53:21.798Z,94531.47
2022-12-29T06:55:48.578Z,94512.03
2022-12-29T06:58:15.613Z,94536.88
2022-12-29T07:00:42.515Z,94541.59
2022-12-29T07:03:10.142Z,94555.06
2022-12-29T07:05:36.858Z,94585.56
2022-12-29T07:08:03.616Z,94548.09
2022-12-29T07:10:30.585Z,94547.41
2022-12-29T07:12:57.485Z,94578.19
2022-12-29T07:15:25.380Z,94548.53
2022-12-29T07:17:52.267Z,94540.59
2022-12-29T07:20:26.240Z,94541.72
2022-12-29T07:22:53.664Z,94552.94
2022-12-29T07:25:20.383Z,94565.50
2022-12-29T07:27:47.106Z,94583.94
2022-12-29T07:30:14.073Z,94572.41
2022-12-29T07:32:42.116Z,94588.97
2022-12-29T07:35:09.005Z,94585.31
2022-12-29T07:37:37.037Z,94601.56
2022-12-29T07:40:04.758Z,94594.38
2022-12-29T07:42:32.292Z,94594.53
2022-12-29T07:45:00.039Z,94623.41
2022-12-29T07:47:34.139Z,94605.09
2022-12-29T07:50:01.341Z,94615.31
2022-12-29T07:52:28.083Z,94618.28
2022-12-29T07:54:55.567Z,94593.13
2022-12-29T07:57:26.463Z,94579.59
2022-12-29T07:59:57.140Z,94570.00
2022-12-29T08:02:24.041Z,94586.50
2022-12-29T08:04:51.576Z,94614.00
2022-12-29T08:07:18.286Z,94605.00
2022-12-29T08:09:45.023Z,94605.00
2022-12-29T08:12:12.284Z,94632.31
2022-12-29T08:14:40.661Z,94632.84
2022-12-29T08:17:07.349Z,94631.41
2022-12-29T08:19:34.169Z,94621.53
2022-12-29T08:22:01.280Z,94668.75
2022-12-29T08:24:28.079Z,94643.97
2022-12-29T08:26:55.920Z,94641.19
2022-12-29T08:29:22.848Z,94645.69
2022-12-29T08:31:49.711Z,94638.19
2022-12-29T08:34:16.517Z,94667.41
2022-12-29T08:36:44.172Z,94691.94
2022-12-29T08:39:12.117Z,94680.25
2022-12-29T08:41:39.059Z,94677.06
2022-12-29T08:44:06.458Z,94675.03
2022-12-29T08:46:33.303Z,94705.94
2022-12-29T08:49:00.286Z,94682.97
2022-12-29T08:51:27.452Z,94646.84
2022-12-29T08:53:54.198Z,94654.41
2022-12-29T08:56:21.789Z,94641.63
2022-12-29T08:58:52.753Z,94627.00
2022-12-29T09:01:21.325Z,94644.66
2022-12-29T09:04:18.937Z,94656.59
2022-12-29T09:06:40.131Z,94674.50
2022-12-29T09:09:08.147Z,94659.59
2022-12-29T09:11:34.885Z,94659.56
2022-12-29T09:14:01.843Z,94653.66
2022-12-29T09:16:28.834Z,94683.19
2022-12-29T09:18:56.272Z,94668.34
2022-12-29T09:21:23.082Z,94658.81
2022-12-29T09:23:50.128Z,94635.03
2022-12-29T09:26:16.980Z,94643.84
2022-12-29T09:28:45.507Z,94648.97
2022-12-29T09:31:12.965Z,94637.03
2022-12-29T09:33:39.822Z,94621.50
2022-12-29T09:36:06.949Z,94632.78
2022-12-29T09:38:33.724Z,94604.91
2022-12-29T09:41:39.600Z,94620.81
2022-12-29T09:44:24.796Z,94628.81
2022-12-29T09:46:56.821Z,94615.00
2022-12-29T09:49:33.231Z,94634.00
2022-12-29T09:52:07.436Z,94609.25
2022-12-29T09:57:26.917Z,94646.16
2022-12-29T10:00:00.957Z,94644.88
2022-12-29T10:02:43.264Z,94687.69
2022-12-29T10:05:21.342Z,94668.38
2022-12-29T10:08:17.780Z,94624.50
2022-12-29T10:11:09.008Z,94632.81
2022-12-29T10:14:03.677Z,94614.63
2022-12-29T10:16:43.332Z,94625.16
2022-12-29T10:19:35.399Z,94597.53
2022-12-29T10:22:02.294Z,94627.50
2022-12-29T10:24:30.513Z,94618.69
2022-12-29T10:27:00.346Z,94589.59
2022-12-29T10:29:44.195Z,94601.78
2022-12-29T10:32:37.877Z,94614.19
2022-12-29T10:35:12.388Z,94625.88
2022-12-29T10:38:06.776Z,94649.19
2022-12-29T10:40:46.411Z,94642.72
2022-12-29T10:43:27.839Z,94650.84
2022-12-29T10:46:02.267Z,94624.38
2022-12-29T10:48:34.737Z,94620.09
2022-12-29T10:51:06.066Z,94609.31
2022-12-29T10:53:44.751Z,94579.72
2022-12-29T10:56:41.405Z,94589.13
2022-12-29T10:59:33.977Z,94612.97
2022-12-29T11:02:23.366Z,94615.94
2022-12-29T11:04:59.581Z,94611.13
2022-12-29T11:07:27.996Z,94590.06
2022-12-29T11:09:55.128Z,94629.13
2022-12-29T11:12:31.732Z,94603.34
2022-12-29T11:15:08.613Z,94607.81
2022-12-29T11:17:53.259Z,94595.97
2022-12-29T11:20:33.648Z,94606.84
2022-12-29T11:23:01.071Z,94595.38
2022-12-29T11:25:29.465Z,94596.16
2022-12-29T11:28:02.364Z,94594.75
2022-12-29T11:30:32.001Z,94555.94
2022-12-29T11:32:59.581Z,94566.09
2022-12-29T11:35:37.434Z,94591.88
2022-12-29T11:38:19.784Z,94569.53
2022-12-29T11:40:46.495Z,94579.22
2022-12-29T11:43:36.373Z,94584.88
2022-12-29T11:46:06.707Z,94589.56
2022-12-29T11:48:40.752Z,94577.06
2022-12-29T11:51:08.817Z,94568.16
2022-12-29T11:53:48.623Z,94573.94
2022-12-29T11:56:18.344Z,94544.53
2022-12-29T11:58:45.235Z,94548.91
2022-12-29T12:01:18.529Z,94529.63
2022-12-29T12:04:04.773Z,94545.06
2022-12-29T12:06:36.185Z,94537.66
2022-12-29T12:09:24.249Z,94550.00
2022-12-29T12:11:55.624Z,94538.13
2022-12-29T12:14:38.309Z,94530.78
2022-12-29T12:18:01.236Z,94541.97
2022-12-29T12:20:44.555Z,94526.72
2022-12-29T12:23:27.087Z,94534.91
2022-12-29T12:26:02.625Z,94512.28
2022-12-29T12:28:55.113Z,94510.16
2022-12-29T12:31:40.360Z,94474.72
2022-12-29T12:34:17.557Z,94490.72
2022-12-29T12:37:16.441Z,94487.78
2022-12-29T12:40:03.960Z,94499.38
2022-12-29T12:42:54.631Z,94483.97
2022-12-29T12:45:39.852Z,94486.72
2022-12-29T12:48:31.288Z,94483.09
2022-12-29T12:51:00.689Z,94478.81
2022-12-29T12:53:42.353Z,94498.31
2022-12-29T12:56:27.412Z,94540.75
2022-12-29T12:59:32.264Z,94519.72
2022-12-29T13:02:04.222Z,94484.13
2022-12-29T13:05:14.242Z,94493.78
2022-12-29T13:08:12.139Z,94531.75
2022-12-29T13:11:07.289Z,94493.78
2022-12-29T13:14:15.356Z,94496.25
2022-12-29T13:17:06.236Z,94522.41
2022-12-29T13:19:41.951Z,94541.97
2022-12-29T13:22:12.616Z,94579.78
2022-12-29T13:25:02.657Z,94549.19
2022-12-29T13:27:36.893Z,94522.41
2022-12-29T13:30:20.495Z,94513.53
2022-12-29T13:33:21.337Z,94511.75
2022-12-29T13:35:55.608Z,94516.44
2022-12-29T13:38:40.155Z,94529.63
2022-12-29T13:41:11.126Z,94500.59
2022-12-29T13:43:44.356Z,94498.44
2022-12-29T13:46:16.918Z,94477.97
2022-12-29T13:48:56.400Z,94463.31
2022-12-29T13:51:28.299Z,94523.13
2022-12-29T13:53:56.091Z,94498.00
2022-12-29T13:56:38.850Z,94478.16
2022-12-29T13:59:17.575Z,94458.09
2022-12-29T14:02:30.054Z,94474.16
2022-12-29T14:05:03.409Z,94482.75
2022-12-29T14:07:38.740Z,94455.44
2022-12-29T14:10:06.674Z,94465.09
2022-12-29T14:12:40.891Z,94467.91
2022-12-29T14:15:22.357Z,94486.94
2022-12-29T14:18:13.079Z,94470.44
2022-12-29T14:20:52.994Z,94467.84
2022-12-29T14:23:30.975Z,94462.50
2022-12-29T14:26:06.450Z,94459.31
2022-12-29T14:28:40.175Z,94460.19
2022-12-29T14:31:29.802Z,94467.31
2022-12-29T14:34:11.545Z,94458.59
2022-12-29T14:36:41.183Z,94470.44
2022-12-29T14:39:38.269Z,94465.22
2022-12-29T14:42:11.173Z,94460.94
2022-12-29T14:44:54.477Z,94433.69
2022-12-29T14:47:33.442Z,94483.41
2022-12-29T14:50:02.243Z,94472.00
2022-12-29T14:52:31.117Z,94477.75
2022-12-29T14:55:16.352Z,94468.81
2022-12-29T14:57:48.588Z,94478.91
2022-12-29T15:00:21.259Z,94481.81
2022-12-29T15:02:54.658Z,94468.09
2022-12-29T15:05:31.488Z,94494.66
2022-12-29T15:08:00.425Z,94474.44
2022-12-29T15:10:36.925Z,94466.22
2022-12-29T15:13:06.548Z,94478.91
2022-12-29T15:15:39.783Z,94471.72
2022-12-29T15:18:24.799Z,94466.94
2022-12-29T15:21:06.201Z,94484.28
2022-12-29T15:23:35.953Z,94491.50
2022-12-29T15:26:06.895Z,94500.38
2022-12-29T15:28:45.320Z,94483.84
2022-12-29T15:31:29.759Z,94479.72
2022-12-29T15:34:10.822Z,94482.31
2022-12-29T15:36:40.540Z,94465.13
2022-12-29T15:39:42.868Z,94506.50
2022-12-29T15:42:49.676Z,94442.63
2022-12-29T15:45:17.419Z,94467.97
2022-12-29T15:47:49.767Z,94445.28
2022-12-29T15:50:30.639Z,94482.88
2022-12-29T15:52:58.831Z,94503.75
2022-12-29T15:55:33.063Z,94499.91
2022-12-29T15:58:01.955Z,94521.00
2022-12-29T16:00:31.201Z,94509.28
2022-12-29T16:03:01.939Z,94494.47
2022-12-29T16:05:37.308Z,94480.94
2022-12-29T16:08:05.064Z,94514.63
2022-12-29T16:10:43.360Z,94504.28
2022-12-29T16:13:36.865Z,94525.09
2022-12-29T16:16:17.931Z,94508.09
2022-12-29T16:18:46.124Z,94504.91
2022-12-29T16:21:31.057Z,94497.56
2022-12-29T16:24:03.280Z,94495.97
2022-12-29T16:26:31.488Z,94507.38
2022-12-29T16:29:01.163Z,94533.50
2022-12-29T16:31:51.351Z,94513.91
2022-12-29T16:34:29.236Z,94536.06
2022-12-29T16:37:23.286Z,94533.91
2022-12-29T16:39:50.292Z,94552.41
2022-12-29T16:42:37.422Z,94528.31
2022-12-29T16:45:20.557Z,94527.06
2022-12-29T16:48:06.819Z,94529.72
2022-12-29T16:50:42.855Z,94502.63
2022-12-29T16:53:32.784Z,94497.56
2022-12-29T16:56:06.577Z,94502.31
2022-12-29T16:58:34.484Z,94486.16
2022-12-29T17:01:03.947Z,94492.03
2022-12-29T17:03:42.738Z,94479.34
2022-12-29T17:06:17.528Z,94507.66
2022-12-29T17:08:46.689Z,94502.84
2022-12-29T17:11:59.261Z,94503.94
2022-12-29T17:14:52.847Z,94517.53
2022-12-29T17:17:24.812Z,94526.78
2022-12-29T17:19:55.048Z,94523.28
2022-12-29T17:22:27.830Z,94505.63
2022-12-29T17:24:57.521Z,94507.78
2022-12-29T17:27:34.507Z,94515.53
2022-12-29T17:30:07.123Z,94506.94
2022-12-29T17:32:34.661Z,94518.25
2022-12-29T17:35:05.322Z,94532.50
2022-12-29T17:37:37.877Z,94528.63
2022-12-29T17:40:07.798Z,94510.31
2022-12-29T17:42:38.621Z,94505.28
2022-12-29T17:45:06.067Z,94498.03
2022-12-29T17:47:33.544Z,94499.16
2022-12-29T17:50:03.637Z,94498.66
2022-12-29T17:52:33.128Z,94513.41
2022-12-29T17:55:01.938Z,94512.81
2022-12-29T17:57:28.712Z,94532.25
2022-12-29T17:59:55.447Z,94527.66
2022-12-29T18:02:27.121Z,94520.16
2022-12-29T18:04:54.086Z,94510.25
2022-12-29T18:07:22.370Z,94523.84
2022-12-29T18:09:49.157Z,94507.19
2022-12-29T18:12:39.359Z,94516.81
2022-12-29T18:15:08.501Z,94538.84
2022-12-29T18:17:35.273Z,94522.09
2022-12-29T18:20:02.495Z,94535.72
2022-12-29T18:22:30.214Z,94510.19
2022-12-29T18:24:57.039Z,94522.06
2022-12-29T18:27:23.899Z,94509.09
2022-12-29T18:29:50.637Z,94513.47
2022-12-29T18:32:18.757Z,94511.03
2022-12-29T18:34:45.543Z,94500.81
2022-12-29T18:37:13.110Z,94512.34
2022-12-29T18:39:39.919Z,94491.91
2022-12-29T18:42:07.797Z,94521.03
2022-12-29T18:44:35.146Z,94514.44
2022-12-29T18:47:02.697Z,94500.44
2022-12-29T18:49:30.407Z,94487.75
2022-12-29T18:51:57.414Z,94500.91
2022-12-29T18:54:33.684Z,94508.28
2022-12-29T18:57:00.563Z,94500.72
2022-12-29T18:59:28.066Z,94503.31
2022-12-29T19:01:54.896Z,94516.03
2022-12-29T19:04:22.726Z,94504.03
2022-12-29T19:06:49.758Z,94514.19
2022-12-29T19:09:18.156Z,94516.72
2022-12-29T19:11:45.607Z,94526.28
2022-12-29T19:14:17.898Z,94514.94
2022-12-29T19:16:50.002Z,94539.63
2022-12-29T19:19:18.151Z,94564.38
2022-12-29T19:21:45.735Z,94544.03
2022-12-29T19:24:13.437Z,94504.34
2022-12-29T19:26:40.578Z,94508.34
2022-12-29T19:29:13.693Z,94534.78
2022-12-29T19:31:40.570Z,94494.19
2022-12-29T19:34:08.160Z,94490.91
2022-12-29T19:36:35.172Z,94493.69
2022-12-29T19:39:03.204Z,94483.56
2022-12-29T19:41:29.977Z,94499.78
2022-12-29T19:43:56.735Z,94501.38
2022-12-29T19:46:24.598Z,94513.22
2022-12-29T19:48:52.564Z,94523.06
2022-12-29T19:51:19.802Z,94498.84
2022-12-29T19:53:47.124Z,94503.47
2022-12-29T19:56:14.454Z,94503.13
2022-12-29T19:58:46.594Z,94518.56
2022-12-29T20:01:19.886Z,94525.94
2022-12-29T20:03:48.679Z,94500.56
2022-12-29T20:06:17.236Z,94500.47
2022-12-29T20:08:44.884Z,94468.22
2022-12-29T20:11:16.149Z,94482.09
2022-12-29T20:13:44.382Z,94491.84
2022-12-29T20:16:20.685Z,94511.09
2022-12-29T20:18:50.465Z,94514.53
2022-12-29T20:21:20.277Z,94529.59
2022-12-29T20:23:49.517Z,94518.25
2022-12-29T20:26:23.537Z,94549.09
2022-12-29T20:28:51.678Z,94515.84
2022-12-29T20:31:26.755Z,94551.19
2022-12-29T20:33:54.865Z,94527.78
2022-12-29T20:36:26.254Z,94505.09
2022-12-29T20:38:55.745Z,94530.97
2022-12-29T20:41:23.664Z,94538.59
2022-12-29T20:43:53.256Z,94526.06
2022-12-29T20:46:24.186Z,94521.78
2022-12-29T20:48:54.353Z,94522.97
2022-12-29T20:51:21.158Z,94526.88
2022-12-29T20:53:49.395Z,94537.72
2022-12-29T20:56:20.509Z,94516.59
2022-12-29T20:59:25.313Z,94504.31
2022-12-29T21:01:36.726Z,94508.63
2022-12-29T21:04:04.891Z,94491.28
2022-12-29T21:06:32.670Z,94504.41
2022-12-29T21:09:00.353Z,94480.19
2022-12-29T21:11:28.839Z,94470.78
2022-12-29T21:13:58.213Z,94475.47
2022-12-29T21:16:29.086Z,94482.72
2022-12-29T21:18:56.036Z,94484.28
2022-12-29T21:21:25.279Z,94502.19
2022-12-29T21:23:52.948Z,94500.31
2022-12-29T21:26:23.615Z,94509.25
2022-12-29T21:28:51.766Z,94495.47
2022-12-29T21:31:33.418Z,94512.41
2022-12-29T21:34:03.107Z,94510.03
2022-12-29T21:36:30.723Z,94500.97
2022-12-29T21:38:58.987Z,94492.19
2022-12-29T21:41:26.535Z,94494.66
2022-12-29T21:44:12.524Z,94479.56
2022-12-29T21:46:42.023Z,94489.66
2022-12-29T21:49:09.637Z,94479.44
2022-12-29T21:51:52.366Z,94486.34
2022-12-29T21:54:46.409Z,94505.56
2022-12-29T21:57:36.830Z,94518.03
2022-12-29T22:00:27.407Z,94504.94
2022-12-29T22:03:22.178Z,94511.91
2022-12-29T22:06:08.977Z,94513.63
2022-12-29T22:08:55.830Z,94503.63
2022-12-29T22:11:41.032Z,94520.28
2022-12-29T22:14:07.868Z,94509.06
2022-12-29T22:16:35.578Z,94501.81
2022-12-29T22:19:02.539Z,94509.53
2022-12-29T22:21:29.900Z,94491.00
2022-12-29T22:23:56.662Z,94466.25
2022-12-29T22:26:23.443Z,94502.63
2022-12-29T22:28:52.546Z,94502.72
2022-12-29T22:31:30.551Z,94516.88
2022-12-29T22:33:59.755Z,94533.78
2022-12-29T22:36:27.170Z,94523.88
2022-12-29T22:38:54.233Z,94520.53
2022-12-29T22:41:22.437Z,94521.03
2022-12-29T22:43:49.202Z,94528.38
2022-12-29T22:46:17.692Z,94522.50
2022-12-29T22:48:44.849Z,94535.75
2022-12-29T22:51:11.647Z,94524.72
2022-12-29T22:53:39.612Z,94519.69
2022-12-29T22:56:12.192Z,94528.91
2022-12-29T22:58:47.535Z,94536.16
2022-12-29T23:01:17.695Z,94509.00
2022-12-29T23:03:45.107Z,94524.59
2022-12-29T23:06:13.888Z,94529.34
2022-12-29T23:08:40.796Z,94518.03
2022-12-29T23:11:09.935Z,94523.44
2022-12-29T23:13:37.867Z,94547.69
2022-12-29T23:16:05.657Z,94551.59
2022-12-29T23:18:32.842Z,94531.50
2022-12-29T23:21:00.085Z,94553.88
2022-12-29T23:23:49.150Z,94560.25
2022-12-29T23:26:18.691Z,94554.97
2022-12-29T23:28:45.871Z,94553.41
2022-12-29T23:31:13.912Z,94564.50
2022-12-29T23:33:41.003Z,94565.09
2022-12-29T23:36:08.093Z,94575.56
2022-12-29T23:38:35.915Z,94540.81
2022-12-29T23:41:02.933Z,94561.63
2022-12-29T23:43:29.658Z,94556.38
2022-12-29T23:45:56.351Z,94551.94
2022-12-29T23:48:23.212Z,94541.78
2022-12-29T23:50:50.004Z,94559.84
2022-12-29T23:53:18.049Z,94558.38
2022-12-29T23:55:44.791Z,94545.22
2022-12-29T23:58:11.530Z,94550.81
